Time;durP1;ratioP1;P1;durP2;ratioP2;P2;SDS_P1;SDS_P2;PMS_P1;PMS_P2;Temp;Humidity;BMP_temperature;BMP_pressure;BME280_temperature;BME280_humidity;BME280_pressure;Samples;Min_cycle;Max_cycle;Signal;HPM_P1;HPM_P2
2022/05/14 00:02:09;;;;;;;12.63;6.20;;;;;;;24.11;35.75;94994.28;4956983;29;20647;-68
2022/05/14 00:04:36;;;;;;;9.20;6.27;;;;;;;23.92;35.81;95002.09;4952770;29;20200;-66
2022/05/14 00:07:03;;;;;;;10.27;6.27;;;;;;;23.73;36.25;95004.56;4951040;29;20251;-67
2022/05/14 00:09:30;;;;;;;8.40;5.90;;;;;;;23.78;36.29;94981.03;4951000;29;20195;-71
2022/05/14 00:14:42;;;;;;;11.63;6.60;;;;;;;23.20;37.32;94986.75;4951014;29;20720;-66
2022/05/14 00:17:09;;;;;;;13.90;6.47;;;;;;;23.25;37.43;94994.56;4951166;29;20192;-70
2022/05/14 00:19:36;;;;;;;15.60;7.47;;;;;;;23.03;37.32;94979.72;4950971;29;20235;-68
2022/05/14 00:22:03;;;;;;;15.13;7.07;;;;;;;23.16;37.48;94985.88;4933951;29;20207;-67
2022/05/14 00:24:29;;;;;;;12.67;6.67;;;;;;;23.57;36.81;95001.00;4934188;29;20196;-70
2022/05/14 00:26:56;;;;;;;14.60;7.27;;;;;;;23.46;36.78;94999.88;4951272;29;20594;-69
2022/05/14 00:29:23;;;;;;;15.20;7.30;;;;;;;23.02;38.06;94996.88;4951179;29;20206;-69
2022/05/14 00:31:50;;;;;;;12.80;7.90;;;;;;;22.77;38.33;94995.22;4950811;29;20737;-72
2022/05/14 00:34:17;;;;;;;11.43;8.20;;;;;;;22.71;38.06;94985.88;4933701;29;20295;-70
2022/05/14 00:36:43;;;;;;;14.77;7.70;;;;;;;22.89;38.06;94981.13;4951226;29;20628;-70
2022/05/14 00:39:11;;;;;;;12.93;7.73;;;;;;;22.73;38.22;94967.63;4951333;28;20282;-70
2022/05/14 00:41:39;;;;;;;11.50;7.53;;;;;;;23.08;37.76;94990.19;4954613;29;20235;-75
2022/05/14 00:44:06;;;;;;;8.63;7.83;;;;;;;23.06;37.93;94986.31;4955058;29;20610;-70
2022/05/14 00:46:57;;;;;;;10.80;8.13;;;;;;;23.01;37.34;94979.28;4937172;29;20695;-71
2022/05/14 00:49:27;;;;;;;9.53;7.27;;;;;;;23.17;37.43;94985.53;4954744;29;20594;-70
2022/05/14 00:51:54;;;;;;;11.97;7.30;;;;;;;23.33;37.23;94984.91;4937134;29;20227;-68
2022/05/14 00:54:29;;;;;;;13.37;7.47;;;;;;;23.13;37.52;94991.88;4954278;29;20192;-70
2022/05/14 00:57:00;;;;;;;10.13;7.70;;;;;;;22.90;37.75;94996.06;4937114;29;20274;-73
2022/05/14 00:59:27;;;;;;;11.93;8.20;;;;;;;22.70;38.26;94992.31;4936812;29;20629;-69
2022/05/14 01:01:56;;;;;;;11.17;7.83;;;;;;;22.51;38.70;94984.00;4954330;29;20598;-73
2022/05/14 01:04:25;;;;;;;15.60;8.80;;;;;;;22.27;39.23;94986.53;4937063;29;20670;-72
2022/05/14 01:07:05;;;;;;;8.80;7.73;;;;;;;22.56;38.97;94983.03;4936875;29;20195;-72
2022/05/14 01:09:36;;;;;;;14.33;9.63;;;;;;;22.62;38.39;94976.38;4936894;29;20584;-71
2022/05/14 01:12:04;;;;;;;21.40;9.47;;;;;;;22.39;38.99;94994.59;4936840;29;20737;-68
2022/05/14 01:14:34;;;;;;;11.03;9.67;;;;;;;21.70;40.27;95001.47;4954350;29;20196;-69
2022/05/14 01:17:02;;;;;;;13.57;9.83;;;;;;;21.75;40.13;94994.06;4937451;29;20211;-66
2022/05/14 01:19:32;;;;;;;12.30;9.27;;;;;;;21.61;40.70;94993.53;4936541;29;20611;-67
2022/05/14 01:22:26;;;;;;;11.30;9.80;;;;;;;21.79;40.11;94989.69;4936764;29;20290;-68
2022/05/14 01:28:09;;;;;;;13.83;8.07;;;;;;;21.77;40.37;94983.09;4936698;29;20298;-69
2022/05/14 01:30:50;;;;;;;12.37;8.33;;;;;;;22.20;39.88;94986.28;4953781;29;20227;-71
2022/05/14 01:33:18;;;;;;;17.07;8.37;;;;;;;22.40;39.42;94980.16;4936768;29;20231;-69
2022/05/14 01:35:47;;;;;;;20.50;9.97;;;;;;;22.50;39.11;94982.41;4937438;29;20196;-67
2022/05/14 01:38:18;;;;;;;11.40;9.13;;;;;;;22.30;39.44;94980.53;4936895;29;20208;-71
2022/05/14 01:40:47;;;;;;;13.47;7.97;;;;;;;22.17;39.89;94976.25;4954043;29;20431;-69
2022/05/14 01:43:14;;;;;;;10.77;8.40;;;;;;;21.96;40.12;94976.25;4952441;29;20223;-70
2022/05/14 01:45:42;;;;;;;13.73;8.77;;;;;;;22.04;40.34;94982.63;4936197;29;20447;-68
2022/05/14 01:48:09;;;;;;;11.40;8.10;;;;;;;22.00;40.22;94955.03;4953433;29;20978;-70
2022/05/14 01:50:38;;;;;;;15.27;8.60;;;;;;;22.15;39.73;94962.47;4953334;28;20208;-69
2022/05/14 01:53:05;;;;;;;11.50;8.27;;;;;;;22.43;39.54;94973.38;4935495;29;20236;-70
2022/05/14 01:55:32;;;;;;;12.20;8.40;;;;;;;22.26;39.41;94968.97;4936283;29;20486;-70
2022/05/14 01:57:59;;;;;;;12.77;8.70;;;;;;;21.91;40.96;94967.66;4953486;29;20180;-70
2022/05/14 02:00:36;;;;;;;12.67;8.03;;;;;;;22.45;39.28;94965.81;4935801;29;20834;-69
2022/05/14 02:03:04;;;;;;;9.80;7.50;;;;;;;22.42;39.36;94969.94;4935747;29;20207;-69
2022/05/14 02:05:31;;;;;;;10.87;8.30;;;;;;;22.38;39.49;94968.22;4953190;29;20202;-72
2022/05/14 02:07:59;;;;;;;12.00;8.77;;;;;;;22.23;39.86;94969.59;4935871;29;20552;-67
2022/05/14 02:10:26;;;;;;;10.53;8.10;;;;;;;22.25;39.79;94971.94;4953061;29;20434;-68
2022/05/14 02:12:52;;;;;;;12.60;8.00;;;;;;;22.32;39.50;94967.66;4953162;29;20482;-69
2022/05/14 02:15:19;;;;;;;10.43;8.13;;;;;;;22.10;39.94;94959.97;4952792;29;20274;-66
2022/05/14 02:17:46;;;;;;;14.03;9.10;;;;;;;21.53;40.91;94962.34;4952964;29;20196;-70
2022/05/14 02:20:13;;;;;;;11.43;9.17;;;;;;;21.65;40.98;94964.34;4935252;29;20487;-68
2022/05/14 02:22:40;;;;;;;12.60;9.47;;;;;;;21.74;40.81;94967.72;4953078;29;20457;-67
2022/05/14 02:25:09;;;;;;;18.53;9.80;;;;;;;21.84;40.41;94967.41;4935808;29;20443;-69
2022/05/14 02:27:37;;;;;;;16.03;9.37;;;;;;;21.78;40.66;94960.66;4935560;29;20653;-68
2022/05/14 02:30:24;;;;;;;12.60;9.93;;;;;;;21.70;41.00;94966.81;4935839;29;20439;-70
2022/05/14 02:32:51;;;;;;;12.07;9.47;;;;;;;21.68;40.96;94966.34;4952755;29;20486;-66
2022/05/14 02:35:18;;;;;;;14.63;9.83;;;;;;;21.67;40.71;94967.47;4952785;29;20443;-69
2022/05/14 02:37:45;;;;;;;11.53;8.47;;;;;;;21.76;40.69;94960.19;4935410;29;20447;-68
2022/05/14 02:40:14;;;;;;;20.20;9.47;;;;;;;21.75;40.89;94953.31;4935436;29;20439;-72
2022/05/14 02:42:41;;;;;;;13.73;8.63;;;;;;;21.97;40.53;94971.69;4953606;29;20438;-69
2022/05/14 02:45:11;;;;;;;10.67;9.03;;;;;;;21.91;41.00;94967.66;4937557;29;20461;-72
2022/05/14 02:47:39;;;;;;;14.57;8.93;;;;;;;21.71;40.74;94955.03;4935741;29;20476;-74
2022/05/14 02:50:08;;;;;;;14.13;9.03;;;;;;;21.73;41.13;94955.50;4952128;29;20443;-71
2022/05/14 02:52:36;;;;;;;12.60;8.90;;;;;;;21.37;41.67;94968.56;4952384;29;20491;-68
2022/05/14 02:55:03;;;;;;;10.43;8.40;;;;;;;21.85;41.02;94969.72;4952346;29;20447;-67
2022/05/14 02:57:31;;;;;;;11.23;9.23;;;;;;;21.96;40.55;94975.47;4952823;29;20677;-69
2022/05/14 02:59:57;;;;;;;13.00;8.97;;;;;;;21.85;41.09;94968.94;4952430;29;20436;-70
2022/05/14 03:02:25;;;;;;;13.03;8.63;;;;;;;21.87;40.78;94978.19;4952495;28;20458;-69
2022/05/14 03:04:52;;;;;;;16.53;8.87;;;;;;;21.93;40.84;94978.78;4950480;29;20555;-67
2022/05/14 03:07:19;;;;;;;12.80;8.87;;;;;;;21.50;41.79;94972.88;4952371;29;20439;-68
2022/05/14 03:09:46;;;;;;;18.87;8.90;;;;;;;21.61;41.20;94966.06;4934966;29;20448;-68
2022/05/14 03:12:15;;;;;;;18.23;9.27;;;;;;;21.48;41.75;94975.88;4934923;29;20919;-73
2022/05/14 03:15:01;;;;;;;10.70;8.87;;;;;;;21.56;41.99;94979.59;4934800;29;20202;-68
2022/05/14 03:17:29;;;;;;;16.70;9.90;;;;;;;21.54;41.44;94979.13;4934578;29;20458;-68
2022/05/14 03:19:56;;;;;;;13.73;9.23;;;;;;;21.47;41.65;94978.84;4934457;29;20610;-68
2022/05/14 03:22:22;;;;;;;12.30;8.50;;;;;;;21.46;41.63;94987.97;4943482;29;20224;-65
2022/05/14 03:24:51;;;;;;;16.20;8.87;;;;;;;21.60;41.75;94983.97;4936875;29;20452;-67
2022/05/14 03:27:17;;;;;;;13.60;9.40;;;;;;;21.79;41.46;94988.91;4934689;29;20504;-67
2022/05/14 03:29:44;;;;;;;11.93;9.47;;;;;;;21.68;41.62;94979.69;4938239;29;20235;-71
2022/05/14 03:32:11;;;;;;;10.83;9.03;;;;;;;21.62;41.41;94968.41;4932940;29;20543;-68
2022/05/14 03:34:38;;;;;;;11.40;8.93;;;;;;;21.42;41.99;94976.38;4932669;29;20959;-72
2022/05/14 03:37:05;;;;;;;13.33;9.17;;;;;;;21.64;41.58;94976.13;4932599;28;20480;-73
2022/05/14 03:39:33;;;;;;;15.67;10.17;;;;;;;21.83;41.29;94992.50;4947308;29;20444;-71
2022/05/14 03:42:00;;;;;;;12.07;9.73;;;;;;;21.54;41.89;94987.13;4932545;29;20460;-71
2022/05/14 03:44:27;;;;;;;12.50;9.33;;;;;;;21.60;41.76;94991.19;4932860;29;20436;-70
2022/05/14 03:46:55;;;;;;;19.33;11.37;;;;;;;21.81;41.16;94990.16;4947137;28;20555;-69
2022/05/14 03:49:22;;;;;;;18.47;9.90;;;;;;;21.51;42.17;94995.78;4931335;29;20447;-67
2022/05/14 03:51:49;;;;;;;16.30;10.53;;;;;;;21.81;41.77;95000.03;4931050;29;20483;-67
2022/05/14 03:54:16;;;;;;;18.00;10.57;;;;;;;21.85;41.60;94993.75;4932144;29;20531;-66
2022/05/14 03:56:43;;;;;;;23.43;11.37;;;;;;;21.14;42.83;94998.13;4930630;29;20456;-67
2022/05/14 03:59:11;;;;;;;17.97;11.17;;;;;;;20.49;43.60;94986.19;4932211;29;21062;-68
2022/05/14 04:01:39;;;;;;;17.73;10.87;;;;;;;20.07;44.82;94996.47;4931284;29;20463;-70
2022/05/14 04:04:15;;;;;;;22.67;11.53;;;;;;;21.15;42.64;94999.69;4931356;29;20547;-67
2022/05/14 04:06:45;;;;;;;21.27;11.97;;;;;;;21.44;42.17;95003.50;4930948;29;20453;-69
2022/05/14 04:09:12;;;;;;;22.03;11.90;;;;;;;21.59;41.98;94994.94;4931120;29;20471;-69
2022/05/14 04:11:41;;;;;;;22.93;10.97;;;;;;;21.59;41.92;94997.59;4930954;29;20456;-68
2022/05/14 04:14:09;;;;;;;21.87;11.87;;;;;;;21.35;42.31;95005.44;4931475;29;20535;-68
2022/05/14 04:16:36;;;;;;;19.03;11.80;;;;;;;21.26;42.25;95015.34;4938552;29;20443;-65
2022/05/14 04:19:03;;;;;;;16.10;11.17;;;;;;;21.52;41.68;95013.34;4937175;29;20440;-67
2022/05/14 04:21:32;;;;;;;25.07;11.60;;;;;;;21.53;42.41;95020.25;4936849;29;20672;-69
2022/05/14 04:24:00;;;;;;;18.07;11.60;;;;;;;21.87;41.65;95014.75;4937003;29;20448;-73
2022/05/14 04:26:28;;;;;;;18.07;12.10;;;;;;;21.87;41.70;95025.44;4938392;29;20539;-67
2022/05/14 04:28:57;;;;;;;18.80;12.50;;;;;;;21.91;41.39;95015.69;4937197;29;20440;-71
2022/05/14 04:31:26;;;;;;;15.33;12.80;;;;;;;21.99;41.51;95030.84;4937192;29;20255;-68
2022/05/14 04:33:53;;;;;;;17.57;11.93;;;;;;;21.59;42.68;95030.41;4938118;29;20570;-69
2022/05/14 04:36:20;;;;;;;20.13;13.00;;;;;;;21.65;42.49;95023.00;4920533;29;20456;-71
2022/05/14 04:38:48;;;;;;;19.97;12.67;;;;;;;22.09;41.82;95035.81;4936679;29;20510;-66
2022/05/14 04:41:15;;;;;;;15.00;12.53;;;;;;;21.96;42.07;95028.81;4936718;29;20450;-68
2022/05/14 04:43:43;;;;;;;25.43;12.23;;;;;;;21.99;41.92;95039.63;4936767;29;20544;-69
2022/05/14 04:46:10;;;;;;;20.57;11.37;;;;;;;22.19;41.96;95043.44;4938755;29;20439;-69
2022/05/14 04:48:38;;;;;;;14.47;11.47;;;;;;;22.04;41.43;95033.34;4938189;29;20515;-69
2022/05/14 04:51:05;;;;;;;19.80;9.93;;;;;;;22.19;40.87;95040.75;4936926;29;20590;-69
2022/05/14 04:53:32;;;;;;;51.90;12.37;;;;;;;22.08;41.37;95043.03;4938176;29;21282;-67
2022/05/14 04:55:59;;;;;;;28.47;11.43;;;;;;;22.14;41.44;95040.97;4936637;29;20532;-69
2022/05/14 04:58:27;;;;;;;15.73;9.77;;;;;;;22.15;41.49;95047.88;4937948;29;20257;-69
2022/05/14 05:00:56;;;;;;;14.87;9.33;;;;;;;21.92;41.72;95043.91;4937903;29;20738;-72
2022/05/14 05:03:25;;;;;;;19.10;9.07;;;;;;;21.79;41.89;95048.38;4936787;29;20459;-68
2022/05/14 05:05:58;;;;;;;9.53;8.53;;;;;;;21.85;41.20;95051.66;4936302;29;20208;-69
2022/05/14 05:08:28;;;;;;;12.73;8.73;;;;;;;21.93;41.36;95050.81;4936361;29;20232;-69
2022/05/14 05:10:55;;;;;;;14.27;8.57;;;;;;;21.99;41.67;95044.19;4937954;29;20181;-69
2022/05/14 05:13:26;;;;;;;12.07;8.83;;;;;;;22.07;41.68;95054.81;4938462;29;20613;-69
2022/05/14 05:15:53;;;;;;;10.30;9.10;;;;;;;22.14;41.92;95051.63;4938497;29;20193;-67
2022/05/14 05:18:20;;;;;;;12.70;8.33;;;;;;;21.75;42.61;95049.31;4938518;29;20563;-68
2022/05/14 05:20:49;;;;;;;9.43;8.50;;;;;;;21.84;42.66;95050.09;4951031;29;20258;-67
2022/05/14 05:23:18;;;;;;;14.93;9.10;;;;;;;21.74;42.40;95047.75;4956616;29;20294;-68
2022/05/14 05:25:46;;;;;;;16.50;8.03;;;;;;;21.34;44.15;95049.16;4956188;28;20215;-67
2022/05/14 05:28:15;;;;;;;10.70;8.87;;;;;;;21.50;44.00;95063.53;4936540;29;20296;-67
2022/05/14 05:30:42;;;;;;;11.23;8.23;;;;;;;21.73;43.59;95062.97;4953634;28;20208;-69
2022/05/14 05:33:11;;;;;;;22.77;9.83;;;;;;;21.44;44.58;95064.81;4957468;28;20967;-69
2022/05/14 05:35:38;;;;;;;18.33;11.63;;;;;;;20.94;45.06;95064.59;4955371;28;20200;-70
2022/05/14 05:38:04;;;;;;;18.17;11.93;;;;;;;21.21;45.05;95068.78;4960545;28;20203;-69
2022/05/14 05:40:33;;;;;;;16.87;14.10;;;;;;;21.89;43.12;95064.03;4954622;28;20295;-69
2022/05/14 05:43:01;;;;;;;21.57;14.23;;;;;;;21.03;44.96;95065.38;4953622;29;20271;-68
2022/05/14 05:45:30;;;;;;;26.33;14.90;;;;;;;21.96;43.42;95077.66;4952416;29;20199;-71
2022/05/14 05:47:58;;;;;;;30.03;12.93;;;;;;;22.05;43.09;95074.91;4953682;29;20188;-70
2022/05/14 05:50:25;;;;;;;26.17;13.17;;;;;;;22.06;42.93;95065.81;4953810;29;20242;-74
2022/05/14 05:52:54;;;;;;;16.77;11.97;;;;;;;22.15;42.22;95071.91;4953769;29;20653;-69
2022/05/14 05:58:08;;;;;;;31.77;11.87;;;;;;;23.17;39.82;95074.88;4953519;29;20219;-68
2022/05/14 06:00:36;;;;;;;53.33;47.60;;;;;;;23.05;39.21;95068.38;4953908;29;20258;-67
2022/05/14 06:03:04;;;;;;;20.37;16.17;;;;;;;22.60;41.51;95070.19;4954690;29;20678;-75
2022/05/14 06:05:36;;;;;;;24.73;19.40;;;;;;;22.41;41.80;95075.16;4955446;29;20451;-70
2022/05/14 06:08:08;;;;;;;15.63;10.57;;;;;;;22.25;43.17;95079.50;4953521;29;20188;-73
2022/05/14 06:10:35;;;;;;;16.17;11.37;;;;;;;22.29;41.90;95082.31;4955853;28;20195;-74
2022/05/14 06:13:03;;;;;;;12.53;11.30;;;;;;;23.02;40.29;95071.72;4950331;29;20231;-74
2022/05/14 06:15:31;;;;;;;16.33;11.57;;;;;;;23.47;39.24;95078.97;4952857;29;20719;-73
2022/05/14 06:18:02;;;;;;;18.33;10.90;;;;;;;22.34;42.44;95093.59;4952743;29;20192;-72
2022/05/14 06:20:30;;;;;;;12.67;11.20;;;;;;;22.05;43.45;95097.06;4952622;29;20236;-72
2022/05/14 06:23:01;;;;;;;24.23;11.10;;;;;;;22.88;41.68;95076.53;4952760;29;20786;-71
2022/05/14 06:25:27;;;;;;;18.57;10.43;;;;;;;22.17;42.83;95074.25;4952933;29;20204;-69
2022/05/14 06:27:54;;;;;;;18.87;12.17;;;;;;;22.99;42.18;95083.03;4953058;29;20211;-71
2022/05/14 06:30:21;;;;;;;24.67;13.37;;;;;;;23.25;41.95;95084.72;4952595;29;20203;-68
2022/05/14 06:32:48;;;;;;;21.50;10.73;;;;;;;22.83;42.85;95081.31;4952238;29;20227;-71
2022/05/14 06:35:15;;;;;;;23.67;12.03;;;;;;;23.22;42.19;95083.47;4952402;29;20309;-69
2022/05/14 06:37:45;;;;;;;18.17;11.30;;;;;;;22.88;42.54;95081.88;4952590;28;20298;-67
2022/05/14 06:40:12;;;;;;;20.10;13.50;;;;;;;22.55;43.21;95072.25;4952609;29;20247;-69
2022/05/14 06:42:39;;;;;;;22.43;13.37;;;;;;;22.58;43.63;95072.41;4952581;29;20203;-72
2022/05/14 06:45:07;;;;;;;26.93;11.73;;;;;;;23.33;42.64;95081.97;4952827;29;20239;-72
2022/05/14 06:47:35;;;;;;;28.93;17.03;;;;;;;23.79;41.44;95075.47;4935826;29;20188;-72
2022/05/14 06:50:04;;;;;;;111.43;93.53;;;;;;;23.86;41.69;95073.00;4961933;29;20214;-75
2022/05/14 06:52:36;;;;;;;24.57;17.03;;;;;;;24.12;40.71;95086.88;4959972;29;20226;-72
2022/05/14 06:55:05;;;;;;;22.47;12.20;;;;;;;24.36;40.06;95086.84;4952517;29;20242;-71
2022/05/14 06:57:33;;;;;;;20.43;13.07;;;;;;;23.86;41.73;95083.72;4935030;29;20188;-71
2022/05/14 07:00:00;;;;;;;27.10;11.87;;;;;;;24.53;40.68;95091.94;4951863;29;20235;-72
2022/05/14 07:02:28;;;;;;;25.13;14.03;;;;;;;24.63;41.05;95077.31;4951942;29;20627;-71
2022/05/14 07:07:42;;;;;;;22.70;12.73;;;;;;;24.36;41.96;95091.44;4952769;29;20294;-71
2022/05/14 07:10:09;;;;;;;24.70;12.17;;;;;;;24.63;41.18;95083.47;4957398;29;20302;-70
2022/05/14 07:12:36;;;;;;;24.63;12.20;;;;;;;23.22;41.62;95088.03;4955134;29;20622;-71
2022/05/14 07:15:04;;;;;;;26.40;11.80;;;;;;;23.83;41.71;95079.81;4952630;29;20194;-72
2022/05/14 07:17:32;;;;;;;26.20;12.07;;;;;;;25.04;39.93;95082.31;4952020;29;20195;-71
2022/05/14 07:19:58;;;;;;;30.33;12.57;;;;;;;25.32;39.75;95085.00;4951759;29;20674;-71
2022/05/14 07:22:25;;;;;;;22.93;11.63;;;;;;;25.26;39.81;95097.09;4951694;29;20270;-73
2022/05/14 07:24:52;;;;;;;25.47;12.47;;;;;;;24.57;40.07;95087.47;4952329;29;20203;-70
2022/05/14 07:27:19;;;;;;;23.30;12.13;;;;;;;25.28;38.66;95094.84;4951710;29;20294;-72
2022/05/14 07:29:46;;;;;;;18.83;12.40;;;;;;;25.19;39.56;95086.19;4951575;29;20204;-70
2022/05/14 07:32:16;;;;;;;18.40;11.47;;;;;;;25.52;38.68;95084.81;4951623;29;20262;-72
2022/05/14 07:34:44;;;;;;;22.70;10.93;;;;;;;25.92;38.32;95087.31;4951067;29;20238;-69
2022/05/14 07:37:22;;;;;;;20.43;11.63;;;;;;;25.60;38.62;95091.91;4951312;29;20199;-72
2022/05/14 07:39:57;;;;;;;19.53;11.37;;;;;;;25.50;39.63;95097.00;4951297;29;20196;-69
2022/05/14 07:42:30;;;;;;;24.63;12.40;;;;;;;25.23;40.41;95087.06;4951766;29;20218;-70
2022/05/14 07:45:00;;;;;;;27.57;12.03;;;;;;;25.59;39.62;95094.94;4951349;29;20662;-71
2022/05/14 07:47:29;;;;;;;18.70;11.57;;;;;;;26.17;38.63;95096.78;4951353;29;20592;-71
2022/05/14 07:49:57;;;;;;;18.13;11.27;;;;;;;25.73;39.35;95100.69;4950652;28;20200;-68
2022/05/14 07:52:24;;;;;;;20.10;11.37;;;;;;;25.24;38.53;95116.22;4951038;29;20180;-70
2022/05/14 07:54:52;;;;;;;17.03;11.70;;;;;;;25.71;37.94;95102.94;4951194;29;20219;-70
2022/05/14 07:57:18;;;;;;;22.97;12.20;;;;;;;25.66;38.35;95097.78;4951881;29;20220;-70
2022/05/14 07:59:46;;;;;;;17.43;11.67;;;;;;;26.21;38.22;95084.22;4951321;29;20215;-70
2022/05/14 08:02:24;;;;;;;20.37;11.60;;;;;;;25.77;38.92;95090.78;4950820;29;20180;-68
2022/05/14 08:04:52;;;;;;;15.07;11.63;;;;;;;26.13;39.22;95093.22;4951081;29;20314;-72
2022/05/14 08:07:19;;;;;;;25.37;10.87;;;;;;;26.25;39.17;95093.13;4950929;29;20754;-67
2022/05/14 08:09:47;;;;;;;17.53;12.03;;;;;;;26.28;38.93;95089.75;4951606;29;20211;-71
2022/05/14 08:12:14;;;;;;;16.93;11.67;;;;;;;26.28;37.73;95087.06;4951312;29;20211;-70
2022/05/14 08:14:41;;;;;;;15.20;11.17;;;;;;;26.65;37.24;95088.28;4951174;29;20239;-72
2022/05/14 08:17:11;;;;;;;15.60;12.07;;;;;;;26.71;38.73;95080.75;4951121;29;20633;-67
2022/05/14 08:19:38;;;;;;;17.13;10.93;;;;;;;26.94;36.78;95079.69;4951059;29;20228;-72
2022/05/14 08:24:52;;;;;;;17.93;12.30;;;;;;;27.18;37.02;95083.22;4951235;29;20226;-72
2022/05/14 08:27:19;;;;;;;18.50;11.63;;;;;;;27.56;36.46;95073.19;4956876;28;20230;-63
2022/05/14 08:29:47;;;;;;;17.83;11.63;;;;;;;28.02;36.15;95068.59;4961343;28;20242;-69
2022/05/14 08:32:18;;;;;;;23.00;12.87;;;;;;;27.71;35.59;95068.84;4951855;28;20570;-70
2022/05/14 08:34:45;;;;;;;20.50;12.10;;;;;;;27.72;36.02;95068.47;4970732;28;20257;-70
2022/05/14 08:37:12;;;;;;;18.20;12.00;;;;;;;27.65;35.25;95067.56;4970903;28;20209;-71
2022/05/14 08:39:39;;;;;;;18.17;11.50;;;;;;;27.38;37.98;95071.31;4970349;28;20273;-72
2022/05/14 08:42:11;;;;;;;16.03;10.77;;;;;;;27.49;37.44;95069.59;4970039;28;20203;-69
2022/05/14 08:44:40;;;;;;;20.73;10.67;;;;;;;28.11;36.79;95061.03;4952612;28;20286;-70
2022/05/14 08:47:22;;;;;;;21.23;11.07;;;;;;;28.45;34.98;95070.78;4969815;28;20214;-70
2022/05/14 08:49:51;;;;;;;15.90;10.77;;;;;;;28.47;35.62;95068.50;4969793;28;20199;-69
2022/05/14 08:52:23;;;;;;;12.83;9.97;;;;;;;27.79;36.02;95070.50;4969571;28;20580;-70
2022/05/14 08:54:57;;;;;;;15.93;11.57;;;;;;;28.42;36.09;95060.72;4970107;28;20223;-69
2022/05/14 08:57:47;;;;;;;14.50;11.97;;;;;;;28.46;35.34;95055.38;4970001;28;20203;-70
2022/05/14 09:00:15;;;;;;;21.70;11.83;;;;;;;28.29;36.32;95051.31;4970172;28;20631;-68
2022/05/14 09:02:49;;;;;;;15.47;11.30;;;;;;;28.32;36.54;95050.56;4972727;28;20588;-69
2022/05/14 09:05:26;;;;;;;14.80;11.30;;;;;;;28.59;35.49;95052.16;4974076;28;20199;-68
2022/05/14 09:07:53;;;;;;;18.87;11.23;;;;;;;28.52;35.97;95043.16;4974304;28;20282;-69
2022/05/14 09:10:25;;;;;;;17.40;10.53;;;;;;;29.10;35.50;95065.09;4974628;28;20195;-69
2022/05/14 09:12:58;;;;;;;18.20;10.63;;;;;;;29.60;33.96;95065.25;4974596;28;20218;-71
2022/05/14 09:15:29;;;;;;;18.43;11.80;;;;;;;29.14;33.92;95068.66;4973357;28;20195;-70
2022/05/14 09:18:12;;;;;;;15.83;10.63;;;;;;;29.42;33.67;95077.03;4974210;28;20249;-72
2022/05/14 09:20:50;;;;;;;17.70;11.23;;;;;;;29.36;33.89;95065.78;4973819;28;20237;-72
2022/05/14 09:23:29;;;;;;;17.57;10.60;;;;;;;29.66;33.54;95063.00;4973609;28;20202;-72
2022/05/14 09:26:02;;;;;;;18.03;9.93;;;;;;;29.70;34.04;95074.66;4973544;28;20587;-70
2022/05/14 09:28:38;;;;;;;15.57;10.70;;;;;;;30.07;32.18;95063.78;4959444;28;20203;-70
2022/05/14 09:31:06;;;;;;;17.73;10.20;;;;;;;30.18;31.87;95046.50;4954383;29;20223;-70
2022/05/14 09:33:40;;;;;;;26.87;11.50;;;;;;;29.98;33.49;95049.81;4954018;29;20256;-73
2022/05/14 09:36:30;;;;;;;16.63;9.50;;;;;;;29.63;33.92;95053.72;4953665;29;20203;-73
2022/05/14 09:39:16;;;;;;;14.43;10.30;;;;;;;30.17;33.29;95039.50;4965104;28;20685;-71
2022/05/14 09:41:50;;;;;;;11.40;10.27;;;;;;;30.32;32.50;95035.78;4968396;28;20203;-70
2022/05/14 09:44:25;;;;;;;18.73;10.37;;;;;;;29.88;33.03;95040.47;4953317;29;20667;-70
2022/05/14 09:47:05;;;;;;;14.13;10.30;;;;;;;30.05;33.54;95041.75;4953775;29;20199;-68
2022/05/14 09:49:34;;;;;;;19.77;13.87;;;;;;;29.85;32.49;95043.91;4938416;29;20211;-68
2022/05/14 09:52:07;;;;;;;23.87;15.43;;;;;;;29.86;33.29;95045.47;4954686;29;20196;-71
2022/05/14 09:54:43;;;;;;;16.70;9.77;;;;;;;28.96;34.76;95047.59;4953450;29;20232;-70
2022/05/14 09:57:33;;;;;;;23.50;8.80;;;;;;;28.94;34.67;95055.28;4953449;29;20188;-73
2022/05/14 10:00:38;;;;;;;22.63;19.50;;;;;;;28.83;33.94;95065.16;4953369;29;20275;-69
2022/05/14 10:03:46;;;;;;;9.27;8.37;;;;;;;28.60;33.71;95077.97;4888623;29;20223;-69
2022/05/14 10:06:25;;;;;;;13.63;6.70;;;;;;;28.25;32.75;95082.81;4944582;29;20510;-70
2022/05/14 10:09:11;;;;;;;12.30;7.23;;;;;;;28.21;32.88;95081.97;4953068;29;20223;-69
2022/05/14 10:11:45;;;;;;;34.17;8.87;;;;;;;28.42;33.18;95087.69;4963489;28;20556;-71
2022/05/14 10:14:17;;;;;;;20.23;8.63;;;;;;;28.25;35.18;95088.19;4962472;29;20215;-72
2022/05/14 10:17:00;;;;;;;13.77;8.30;;;;;;;28.02;37.61;95095.53;4953325;29;20200;-75
2022/05/14 10:19:27;;;;;;;10.80;9.53;;;;;;;27.82;38.70;95096.72;4953062;29;20238;-71
2022/05/14 10:22:06;;;;;;;23.67;10.27;;;;;;;27.33;39.03;95098.53;4953059;29;20196;-75
2022/05/14 10:27:57;;;;;;;26.93;17.83;;;;;;;27.84;42.33;95086.38;4952534;29;20196;-72
2022/05/14 10:30:37;;;;;;;60.60;49.73;;;;;;;28.94;39.93;95082.25;4952654;29;20681;-73
2022/05/14 10:33:12;;;;;;;20.03;12.13;;;;;;;29.38;38.66;95081.63;4953498;29;20202;-73
2022/05/14 10:35:58;;;;;;;16.43;10.40;;;;;;;28.96;37.21;95088.06;4953068;29;20194;-72
2022/05/14 10:38:34;;;;;;;19.27;10.80;;;;;;;28.76;37.44;95075.84;4955348;29;20689;-73
2022/05/14 10:41:06;;;;;;;20.63;11.80;;;;;;;29.46;37.03;95085.94;4951715;29;20195;-71
2022/05/14 10:43:56;;;;;;;17.97;11.80;;;;;;;29.67;36.61;95070.72;4951732;29;20196;-70
2022/05/14 10:46:34;;;;;;;16.37;9.60;;;;;;;29.50;35.47;95075.97;4950029;29;20211;-72
2022/05/14 10:49:17;;;;;;;21.30;10.67;;;;;;;29.62;34.87;95068.38;4949969;29;20191;-70
2022/05/14 10:51:46;;;;;;;18.30;12.27;;;;;;;30.03;35.16;95071.84;4949916;28;20188;-74
2022/05/14 10:54:19;;;;;;;38.57;28.70;;;;;;;29.55;36.83;95072.94;4951922;28;20279;-71
2022/05/14 10:57:38;;;;;;;17.73;12.93;;;;;;;29.49;37.37;95069.03;4956985;28;20214;-72
2022/05/14 11:00:12;;;;;;;18.47;11.00;;;;;;;28.65;37.39;95066.84;4855930;29;20222;-75
2022/05/14 11:02:53;;;;;;;12.77;10.00;;;;;;;28.48;37.75;95059.28;4858738;29;20672;-69
2022/05/14 11:05:46;;;;;;;14.67;10.20;;;;;;;29.46;38.47;95048.16;4932257;28;20235;-67
2022/05/14 11:11:20;;;;;;;14.70;9.17;;;;;;;30.19;35.74;95042.63;4963757;28;20715;-69
2022/05/14 11:14:03;;;;;;;15.60;9.50;;;;;;;30.08;35.42;95044.47;4961131;28;20308;-71
2022/05/14 11:16:35;;;;;;;11.57;9.97;;;;;;;30.58;34.89;95037.47;4965489;28;20207;-70
2022/05/14 11:19:04;;;;;;;14.27;9.87;;;;;;;29.86;34.11;95013.03;4967318;28;20214;-68
2022/05/14 11:21:38;;;;;;;12.57;9.83;;;;;;;30.03;34.37;95030.53;4960152;28;20258;-69
2022/05/14 11:24:06;;;;;;;14.53;9.57;;;;;;;30.42;34.31;95035.06;4953563;28;20206;-68
2022/05/14 11:26:53;;;;;;;15.20;9.83;;;;;;;31.04;33.68;95038.47;4951811;29;20577;-66
2022/05/14 11:29:24;;;;;;;24.67;22.10;;;;;;;30.34;32.33;95038.91;4951193;29;20746;-72
2022/05/14 11:32:03;;;;;;;11.23;8.40;;;;;;;29.56;32.97;95042.84;4951591;29;20191;-70
2022/05/14 11:34:30;;;;;;;13.80;8.27;;;;;;;29.85;32.95;95043.91;4953980;28;20242;-68
2022/05/14 11:37:01;;;;;;;17.23;8.73;;;;;;;30.37;32.01;95035.44;4951360;29;20192;-70
2022/05/14 11:39:37;;;;;;;12.57;8.10;;;;;;;30.59;32.61;95036.31;4951348;29;20215;-70
2022/05/14 11:42:22;;;;;;;9.73;7.80;;;;;;;30.76;31.83;95033.72;4954126;29;20198;-68
2022/05/14 11:45:18;;;;;;;11.53;8.90;;;;;;;31.01;32.11;95033.03;4951780;29;20216;-69
2022/05/14 11:47:58;;;;;;;12.57;8.53;;;;;;;31.21;31.88;95020.72;4951087;29;20223;-69
2022/05/14 11:50:47;;;;;;;14.27;9.10;;;;;;;31.51;32.08;95019.28;4951470;29;20196;-70
2022/05/14 11:53:40;;;;;;;9.83;8.40;;;;;;;31.44;32.87;95018.50;4951207;29;20738;-73
2022/05/14 11:56:15;;;;;;;20.87;16.10;;;;;;;31.20;31.76;95024.59;4950902;29;20587;-72
2022/05/14 11:58:51;;;;;;;12.40;11.13;;;;;;;31.09;31.67;95040.03;4956046;28;20194;-73
2022/05/14 12:01:30;;;;;;;13.10;8.87;;;;;;;30.96;32.42;95041.53;4970835;28;20234;-73